sensor_id;sensor_type;location;lat;lon;timestamp;temperature;humidity
15156;DHT22;7678;50.058;8.306;2023-03-14T00:01:18;9.60;99.90
15156;DHT22;7678;50.058;8.306;2023-03-14T00:03:46;9.60;99.90
15156;DHT22;7678;50.058;8.306;2023-03-14T00:06:16;9.60;99.90
15156;DHT22;7678;50.058;8.306;2023-03-14T00:08:44;9.70;99.90
15156;DHT22;7678;50.058;8.306;2023-03-14T00:11:14;9.70;99.90
15156;DHT22;7678;50.058;8.306;2023-03-14T00:13:47;9.80;99.90
15156;DHT22;7678;50.058;8.306;2023-03-14T00:16:18;9.90;99.90
15156;DHT22;7678;50.058;8.306;2023-03-14T00:18:47;10.00;99.90
15156;DHT22;7678;50.058;8.306;2023-03-14T00:21:15;9.90;99.90
15156;DHT22;7678;50.058;8.306;2023-03-14T00:23:43;10.00;99.90
15156;DHT22;7678;50.058;8.306;2023-03-14T00:26:13;9.90;99.90
15156;DHT22;7678;50.058;8.306;2023-03-14T00:28:42;10.00;99.90
15156;DHT22;7678;50.058;8.306;2023-03-14T00:31:12;10.00;99.90
15156;DHT22;7678;50.058;8.306;2023-03-14T00:33:42;10.10;99.90
15156;DHT22;7678;50.058;8.306;2023-03-14T00:36:12;10.10;99.90
15156;DHT22;7678;50.058;8.306;2023-03-14T00:38:41;10.10;99.90
15156;DHT22;7678;50.058;8.306;2023-03-14T00:41:11;10.00;99.90
15156;DHT22;7678;50.058;8.306;2023-03-14T00:43:40;10.10;99.90
15156;DHT22;7678;50.058;8.306;2023-03-14T00:46:09;10.10;99.90
15156;DHT22;7678;50.058;8.306;2023-03-14T00:48:37;10.00;99.90
15156;DHT22;7678;50.058;8.306;2023-03-14T00:51:08;10.00;99.90
15156;DHT22;7678;50.058;8.306;2023-03-14T00:53:39;9.90;99.90
15156;DHT22;7678;50.058;8.306;2023-03-14T00:56:09;9.90;99.90
15156;DHT22;7678;50.058;8.306;2023-03-14T00:58:38;10.00;99.90
15156;DHT22;7678;50.058;8.306;2023-03-14T01:01:07;10.00;99.90
15156;DHT22;7678;50.058;8.306;2023-03-14T01:03:35;10.00;99.90
15156;DHT22;7678;50.058;8.306;2023-03-14T01:06:09;10.10;99.90
15156;DHT22;7678;50.058;8.306;2023-03-14T01:08:38;10.00;99.90
15156;DHT22;7678;50.058;8.306;2023-03-14T01:11:08;10.00;99.90
15156;DHT22;7678;50.058;8.306;2023-03-14T01:13:36;9.90;99.90
15156;DHT22;7678;50.058;8.306;2023-03-14T01:16:06;10.00;99.90
15156;DHT22;7678;50.058;8.306;2023-03-14T01:18:35;10.10;99.90
15156;DHT22;7678;50.058;8.306;2023-03-14T01:21:10;10.00;99.90
15156;DHT22;7678;50.058;8.306;2023-03-14T01:23:38;10.10;99.90
15156;DHT22;7678;50.058;8.306;2023-03-14T01:26:08;10.20;99.90
15156;DHT22;7678;50.058;8.306;2023-03-14T01:28:37;10.00;99.90
15156;DHT22;7678;50.058;8.306;2023-03-14T01:31:06;10.00;99.90
15156;DHT22;7678;50.058;8.306;2023-03-14T01:33:34;10.10;99.90
15156;DHT22;7678;50.058;8.306;2023-03-14T01:36:03;10.00;99.90
15156;DHT22;7678;50.058;8.306;2023-03-14T01:38:37;10.00;99.90
15156;DHT22;7678;50.058;8.306;2023-03-14T01:41:06;10.00;99.90
15156;DHT22;7678;50.058;8.306;2023-03-14T01:43:34;10.10;99.90
15156;DHT22;7678;50.058;8.306;2023-03-14T01:46:19;10.10;99.90
15156;DHT22;7678;50.058;8.306;2023-03-14T01:48:51;10.00;99.90
15156;DHT22;7678;50.058;8.306;2023-03-14T01:51:25;9.90;99.90
15156;DHT22;7678;50.058;8.306;2023-03-14T01:54:01;10.00;99.90
15156;DHT22;7678;50.058;8.306;2023-03-14T01:56:30;10.00;99.90
15156;DHT22;7678;50.058;8.306;2023-03-14T01:58:59;10.00;99.90
15156;DHT22;7678;50.058;8.306;2023-03-14T02:01:28;9.90;99.90
15156;DHT22;7678;50.058;8.306;2023-03-14T02:04:01;10.00;99.90
15156;DHT22;7678;50.058;8.306;2023-03-14T02:06:35;10.00;99.90
15156;DHT22;7678;50.058;8.306;2023-03-14T02:09:07;10.10;99.90
15156;DHT22;7678;50.058;8.306;2023-03-14T02:11:35;10.10;99.90
15156;DHT22;7678;50.058;8.306;2023-03-14T02:14:04;10.10;99.90
15156;DHT22;7678;50.058;8.306;2023-03-14T02:16:32;10.10;99.90
15156;DHT22;7678;50.058;8.306;2023-03-14T02:19:02;10.10;99.90
15156;DHT22;7678;50.058;8.306;2023-03-14T02:21:41;10.10;99.90
15156;DHT22;7678;50.058;8.306;2023-03-14T02:24:18;10.20;99.90
15156;DHT22;7678;50.058;8.306;2023-03-14T02:27:08;10.10;99.90
15156;DHT22;7678;50.058;8.306;2023-03-14T02:29:41;10.10;99.90
15156;DHT22;7678;50.058;8.306;2023-03-14T02:32:11;10.10;99.90
15156;DHT22;7678;50.058;8.306;2023-03-14T02:34:40;10.10;99.90
15156;DHT22;7678;50.058;8.306;2023-03-14T02:37:10;10.00;99.90
15156;DHT22;7678;50.058;8.306;2023-03-14T02:39:41;10.00;99.90
15156;DHT22;7678;50.058;8.306;2023-03-14T02:42:13;10.00;99.90
15156;DHT22;7678;50.058;8.306;2023-03-14T02:44:52;10.00;99.90
15156;DHT22;7678;50.058;8.306;2023-03-14T02:47:25;9.90;99.90
15156;DHT22;7678;50.058;8.306;2023-03-14T02:50:01;9.90;99.90
15156;DHT22;7678;50.058;8.306;2023-03-14T02:52:30;10.00;99.90
15156;DHT22;7678;50.058;8.306;2023-03-14T02:54:58;10.00;99.90
15156;DHT22;7678;50.058;8.306;2023-03-14T02:57:27;9.90;99.90
15156;DHT22;7678;50.058;8.306;2023-03-14T02:59:58;9.90;99.90
15156;DHT22;7678;50.058;8.306;2023-03-14T03:02:27;10.00;99.90
15156;DHT22;7678;50.058;8.306;2023-03-14T03:04:55;10.00;99.90
15156;DHT22;7678;50.058;8.306;2023-03-14T03:07:23;9.90;99.90
15156;DHT22;7678;50.058;8.306;2023-03-14T03:09:51;9.90;99.90
15156;DHT22;7678;50.058;8.306;2023-03-14T03:12:19;10.00;99.90
15156;DHT22;7678;50.058;8.306;2023-03-14T03:14:48;10.00;99.90
15156;DHT22;7678;50.058;8.306;2023-03-14T03:17:16;10.00;99.90
15156;DHT22;7678;50.058;8.306;2023-03-14T03:19:44;9.90;99.90
15156;DHT22;7678;50.058;8.306;2023-03-14T03:22:12;9.80;99.90
15156;DHT22;7678;50.058;8.306;2023-03-14T03:24:40;9.90;99.90
15156;DHT22;7678;50.058;8.306;2023-03-14T03:27:08;9.90;99.90
15156;DHT22;7678;50.058;8.306;2023-03-14T03:29:36;9.90;99.90
15156;DHT22;7678;50.058;8.306;2023-03-14T03:32:05;9.90;99.90
15156;DHT22;7678;50.058;8.306;2023-03-14T03:34:33;9.90;99.90
15156;DHT22;7678;50.058;8.306;2023-03-14T03:37:01;9.80;99.90
15156;DHT22;7678;50.058;8.306;2023-03-14T03:39:29;9.90;99.90
15156;DHT22;7678;50.058;8.306;2023-03-14T03:41:57;9.90;99.90
15156;DHT22;7678;50.058;8.306;2023-03-14T03:44:25;9.90;99.90
15156;DHT22;7678;50.058;8.306;2023-03-14T03:46:53;9.80;99.90
15156;DHT22;7678;50.058;8.306;2023-03-14T03:49:22;9.80;99.90
15156;DHT22;7678;50.058;8.306;2023-03-14T03:52:03;9.80;99.90
15156;DHT22;7678;50.058;8.306;2023-03-14T03:54:31;9.90;99.90
15156;DHT22;7678;50.058;8.306;2023-03-14T03:56:59;9.90;99.90
15156;DHT22;7678;50.058;8.306;2023-03-14T03:59:27;9.90;99.90
15156;DHT22;7678;50.058;8.306;2023-03-14T04:01:55;9.90;99.90
15156;DHT22;7678;50.058;8.306;2023-03-14T04:04:25;10.00;99.90
15156;DHT22;7678;50.058;8.306;2023-03-14T04:06:53;9.90;99.90
15156;DHT22;7678;50.058;8.306;2023-03-14T04:09:20;9.80;99.90
15156;DHT22;7678;50.058;8.306;2023-03-14T04:11:48;9.80;99.90
15156;DHT22;7678;50.058;8.306;2023-03-14T04:14:16;9.90;99.90
15156;DHT22;7678;50.058;8.306;2023-03-14T04:16:44;9.90;99.90
15156;DHT22;7678;50.058;8.306;2023-03-14T04:19:12;9.90;99.90
15156;DHT22;7678;50.058;8.306;2023-03-14T04:21:41;9.80;99.90
15156;DHT22;7678;50.058;8.306;2023-03-14T04:24:11;9.90;99.90
15156;DHT22;7678;50.058;8.306;2023-03-14T04:26:39;9.90;99.90
15156;DHT22;7678;50.058;8.306;2023-03-14T04:29:07;9.80;99.90
15156;DHT22;7678;50.058;8.306;2023-03-14T04:31:37;9.90;99.90
15156;DHT22;7678;50.058;8.306;2023-03-14T04:34:05;9.70;99.90
15156;DHT22;7678;50.058;8.306;2023-03-14T04:36:34;9.80;99.90
15156;DHT22;7678;50.058;8.306;2023-03-14T04:39:06;9.90;99.90
15156;DHT22;7678;50.058;8.306;2023-03-14T04:41:34;9.80;99.90
15156;DHT22;7678;50.058;8.306;2023-03-14T04:44:02;9.70;99.90
15156;DHT22;7678;50.058;8.306;2023-03-14T04:46:30;9.70;99.90
15156;DHT22;7678;50.058;8.306;2023-03-14T04:48:58;9.80;99.90
15156;DHT22;7678;50.058;8.306;2023-03-14T04:51:26;9.70;99.90
15156;DHT22;7678;50.058;8.306;2023-03-14T04:53:54;9.60;99.90
15156;DHT22;7678;50.058;8.306;2023-03-14T04:56:23;9.60;99.90
15156;DHT22;7678;50.058;8.306;2023-03-14T04:58:52;9.70;99.90
15156;DHT22;7678;50.058;8.306;2023-03-14T05:01:19;9.70;99.90
15156;DHT22;7678;50.058;8.306;2023-03-14T05:03:47;9.70;99.90
15156;DHT22;7678;50.058;8.306;2023-03-14T05:06:15;9.70;99.90
15156;DHT22;7678;50.058;8.306;2023-03-14T05:08:43;9.70;99.90
15156;DHT22;7678;50.058;8.306;2023-03-14T05:11:11;9.70;99.90
15156;DHT22;7678;50.058;8.306;2023-03-14T05:13:41;9.70;99.90
15156;DHT22;7678;50.058;8.306;2023-03-14T05:16:10;9.70;99.90
15156;DHT22;7678;50.058;8.306;2023-03-14T05:18:38;9.60;99.90
15156;DHT22;7678;50.058;8.306;2023-03-14T05:21:06;9.60;99.90
15156;DHT22;7678;50.058;8.306;2023-03-14T05:23:34;9.60;99.90
15156;DHT22;7678;50.058;8.306;2023-03-14T05:26:02;9.60;99.90
15156;DHT22;7678;50.058;8.306;2023-03-14T05:28:30;9.70;99.90
15156;DHT22;7678;50.058;8.306;2023-03-14T05:30:59;9.60;99.90
15156;DHT22;7678;50.058;8.306;2023-03-14T05:33:27;9.60;99.90
15156;DHT22;7678;50.058;8.306;2023-03-14T05:35:55;9.60;99.90
15156;DHT22;7678;50.058;8.306;2023-03-14T05:38:23;9.60;99.90
15156;DHT22;7678;50.058;8.306;2023-03-14T05:40:51;9.50;99.90
15156;DHT22;7678;50.058;8.306;2023-03-14T05:43:19;9.50;99.90
15156;DHT22;7678;50.058;8.306;2023-03-14T05:45:47;9.50;99.90
15156;DHT22;7678;50.058;8.306;2023-03-14T05:48:17;9.60;99.90
15156;DHT22;7678;50.058;8.306;2023-03-14T05:50:45;9.50;99.90
15156;DHT22;7678;50.058;8.306;2023-03-14T05:53:13;9.50;99.90
15156;DHT22;7678;50.058;8.306;2023-03-14T05:55:42;9.60;99.90
15156;DHT22;7678;50.058;8.306;2023-03-14T05:58:10;9.70;99.90
15156;DHT22;7678;50.058;8.306;2023-03-14T06:00:38;9.60;99.90
15156;DHT22;7678;50.058;8.306;2023-03-14T06:03:06;9.50;99.90
15156;DHT22;7678;50.058;8.306;2023-03-14T06:05:35;9.60;99.90
15156;DHT22;7678;50.058;8.306;2023-03-14T06:08:03;9.60;99.90
15156;DHT22;7678;50.058;8.306;2023-03-14T06:10:32;9.60;99.90
15156;DHT22;7678;50.058;8.306;2023-03-14T06:12:59;9.50;99.90
15156;DHT22;7678;50.058;8.306;2023-03-14T06:15:27;9.50;99.90
15156;DHT22;7678;50.058;8.306;2023-03-14T06:17:55;9.50;99.90
15156;DHT22;7678;50.058;8.306;2023-03-14T06:20:24;9.50;99.90
15156;DHT22;7678;50.058;8.306;2023-03-14T06:22:54;9.50;99.90
15156;DHT22;7678;50.058;8.306;2023-03-14T06:25:25;9.60;99.90
15156;DHT22;7678;50.058;8.306;2023-03-14T06:27:52;9.50;99.90
15156;DHT22;7678;50.058;8.306;2023-03-14T06:30:21;9.50;99.90
15156;DHT22;7678;50.058;8.306;2023-03-14T06:32:49;9.60;99.90
15156;DHT22;7678;50.058;8.306;2023-03-14T06:35:17;9.60;99.90
15156;DHT22;7678;50.058;8.306;2023-03-14T06:37:45;9.50;99.90
15156;DHT22;7678;50.058;8.306;2023-03-14T06:40:14;9.50;99.90
15156;DHT22;7678;50.058;8.306;2023-03-14T06:42:44;9.50;99.90
15156;DHT22;7678;50.058;8.306;2023-03-14T06:45:13;9.50;99.90
15156;DHT22;7678;50.058;8.306;2023-03-14T06:47:41;9.60;99.90
15156;DHT22;7678;50.058;8.306;2023-03-14T06:50:10;9.60;99.90
15156;DHT22;7678;50.058;8.306;2023-03-14T06:52:38;9.60;99.90
15156;DHT22;7678;50.058;8.306;2023-03-14T06:55:08;9.60;99.90
15156;DHT22;7678;50.058;8.306;2023-03-14T06:57:37;9.50;99.90
15156;DHT22;7678;50.058;8.306;2023-03-14T07:00:07;9.60;99.90
15156;DHT22;7678;50.058;8.306;2023-03-14T07:02:35;9.70;99.90
15156;DHT22;7678;50.058;8.306;2023-03-14T07:05:09;9.70;99.90
15156;DHT22;7678;50.058;8.306;2023-03-14T07:07:37;9.70;99.90
15156;DHT22;7678;50.058;8.306;2023-03-14T07:10:06;9.70;99.90
15156;DHT22;7678;50.058;8.306;2023-03-14T07:12:36;9.70;99.90
15156;DHT22;7678;50.058;8.306;2023-03-14T07:15:05;9.70;99.90
15156;DHT22;7678;50.058;8.306;2023-03-14T07:17:44;9.80;99.90
15156;DHT22;7678;50.058;8.306;2023-03-14T07:20:14;9.90;99.90
15156;DHT22;7678;50.058;8.306;2023-03-14T07:22:42;9.90;99.90
15156;DHT22;7678;50.058;8.306;2023-03-14T07:25:10;9.80;99.90
15156;DHT22;7678;50.058;8.306;2023-03-14T07:27:40;9.80;99.90
15156;DHT22;7678;50.058;8.306;2023-03-14T07:30:11;9.80;99.90
15156;DHT22;7678;50.058;8.306;2023-03-14T07:32:40;9.80;99.90
15156;DHT22;7678;50.058;8.306;2023-03-14T07:35:08;9.80;99.90
15156;DHT22;7678;50.058;8.306;2023-03-14T07:37:37;9.80;99.90
15156;DHT22;7678;50.058;8.306;2023-03-14T07:40:06;9.80;99.90
15156;DHT22;7678;50.058;8.306;2023-03-14T07:42:37;9.80;99.90
15156;DHT22;7678;50.058;8.306;2023-03-14T07:45:07;9.80;99.90
15156;DHT22;7678;50.058;8.306;2023-03-14T07:47:36;9.90;99.90
15156;DHT22;7678;50.058;8.306;2023-03-14T07:50:05;9.90;99.90
15156;DHT22;7678;50.058;8.306;2023-03-14T07:52:33;9.80;99.90
15156;DHT22;7678;50.058;8.306;2023-03-14T07:55:01;9.80;99.90
15156;DHT22;7678;50.058;8.306;2023-03-14T07:57:29;9.80;99.90
15156;DHT22;7678;50.058;8.306;2023-03-14T07:59:57;9.80;99.90
15156;DHT22;7678;50.058;8.306;2023-03-14T08:02:26;9.90;99.90
15156;DHT22;7678;50.058;8.306;2023-03-14T08:04:54;9.80;99.90
15156;DHT22;7678;50.058;8.306;2023-03-14T08:07:23;9.80;99.90
15156;DHT22;7678;50.058;8.306;2023-03-14T08:09:51;9.70;99.90
15156;DHT22;7678;50.058;8.306;2023-03-14T08:12:19;9.70;99.90
15156;DHT22;7678;50.058;8.306;2023-03-14T08:14:47;9.70;99.90
15156;DHT22;7678;50.058;8.306;2023-03-14T08:17:15;9.80;99.90
15156;DHT22;7678;50.058;8.306;2023-03-14T08:19:44;9.80;99.90
15156;DHT22;7678;50.058;8.306;2023-03-14T08:22:12;9.90;99.90
15156;DHT22;7678;50.058;8.306;2023-03-14T08:24:41;9.90;99.90
15156;DHT22;7678;50.058;8.306;2023-03-14T08:27:10;10.00;99.90
15156;DHT22;7678;50.058;8.306;2023-03-14T08:29:37;10.10;99.90
15156;DHT22;7678;50.058;8.306;2023-03-14T08:32:08;10.10;99.90
15156;DHT22;7678;50.058;8.306;2023-03-14T08:34:36;10.20;99.90
15156;DHT22;7678;50.058;8.306;2023-03-14T08:37:06;10.60;99.90
15156;DHT22;7678;50.058;8.306;2023-03-14T08:39:51;10.80;99.90
15156;DHT22;7678;50.058;8.306;2023-03-14T08:42:19;10.90;99.90
15156;DHT22;7678;50.058;8.306;2023-03-14T08:44:47;10.80;99.90
15156;DHT22;7678;50.058;8.306;2023-03-14T08:47:15;10.80;99.90
15156;DHT22;7678;50.058;8.306;2023-03-14T08:49:43;10.90;99.90
15156;DHT22;7678;50.058;8.306;2023-03-14T08:52:13;11.10;99.90
15156;DHT22;7678;50.058;8.306;2023-03-14T08:54:43;11.20;99.90
15156;DHT22;7678;50.058;8.306;2023-03-14T08:57:11;11.40;99.90
15156;DHT22;7678;50.058;8.306;2023-03-14T08:59:39;11.30;99.90
15156;DHT22;7678;50.058;8.306;2023-03-14T09:02:09;11.40;99.90
15156;DHT22;7678;50.058;8.306;2023-03-14T09:04:39;11.30;99.90
15156;DHT22;7678;50.058;8.306;2023-03-14T09:07:07;11.00;99.90
15156;DHT22;7678;50.058;8.306;2023-03-14T09:09:36;11.00;99.90
15156;DHT22;7678;50.058;8.306;2023-03-14T09:12:05;10.60;99.90
15156;DHT22;7678;50.058;8.306;2023-03-14T09:14:33;10.60;99.90
15156;DHT22;7678;50.058;8.306;2023-03-14T09:17:02;10.50;99.90
15156;DHT22;7678;50.058;8.306;2023-03-14T09:19:30;10.60;99.90
15156;DHT22;7678;50.058;8.306;2023-03-14T09:21:58;10.60;99.90
15156;DHT22;7678;50.058;8.306;2023-03-14T09:24:26;10.60;99.90
15156;DHT22;7678;50.058;8.306;2023-03-14T09:26:56;10.50;99.90
15156;DHT22;7678;50.058;8.306;2023-03-14T09:29:24;10.40;99.90
15156;DHT22;7678;50.058;8.306;2023-03-14T09:31:52;10.50;99.90
15156;DHT22;7678;50.058;8.306;2023-03-14T09:34:20;10.40;99.90
15156;DHT22;7678;50.058;8.306;2023-03-14T09:36:48;10.40;99.90
15156;DHT22;7678;50.058;8.306;2023-03-14T09:39:16;10.50;99.90
15156;DHT22;7678;50.058;8.306;2023-03-14T09:41:47;10.50;99.90
15156;DHT22;7678;50.058;8.306;2023-03-14T09:44:21;10.50;99.90
15156;DHT22;7678;50.058;8.306;2023-03-14T09:46:53;10.60;99.90
15156;DHT22;7678;50.058;8.306;2023-03-14T09:49:27;10.50;99.90
15156;DHT22;7678;50.058;8.306;2023-03-14T09:51:57;10.60;99.90
15156;DHT22;7678;50.058;8.306;2023-03-14T09:54:35;10.70;99.90
15156;DHT22;7678;50.058;8.306;2023-03-14T09:57:05;10.70;99.90
15156;DHT22;7678;50.058;8.306;2023-03-14T09:59:35;10.70;99.90
15156;DHT22;7678;50.058;8.306;2023-03-14T10:02:14;10.70;99.90
15156;DHT22;7678;50.058;8.306;2023-03-14T10:04:44;10.70;99.90
15156;DHT22;7678;50.058;8.306;2023-03-14T10:07:14;10.70;99.90
15156;DHT22;7678;50.058;8.306;2023-03-14T10:09:43;10.60;99.90
15156;DHT22;7678;50.058;8.306;2023-03-14T10:12:12;10.70;99.90
15156;DHT22;7678;50.058;8.306;2023-03-14T10:14:48;10.80;99.90
15156;DHT22;7678;50.058;8.306;2023-03-14T10:17:18;10.80;99.90
15156;DHT22;7678;50.058;8.306;2023-03-14T10:19:54;10.80;99.90
15156;DHT22;7678;50.058;8.306;2023-03-14T10:22:26;10.90;99.90
15156;DHT22;7678;50.058;8.306;2023-03-14T10:24:57;10.80;99.90
15156;DHT22;7678;50.058;8.306;2023-03-14T10:27:29;10.90;99.90
15156;DHT22;7678;50.058;8.306;2023-03-14T10:30:03;11.00;99.90
15156;DHT22;7678;50.058;8.306;2023-03-14T10:32:33;10.90;99.90
15156;DHT22;7678;50.058;8.306;2023-03-14T10:35:14;10.90;99.90
15156;DHT22;7678;50.058;8.306;2023-03-14T10:37:51;10.80;99.90
15156;DHT22;7678;50.058;8.306;2023-03-14T10:40:26;10.90;99.90
15156;DHT22;7678;50.058;8.306;2023-03-14T10:42:58;10.90;99.90
15156;DHT22;7678;50.058;8.306;2023-03-14T10:45:38;10.90;99.90
15156;DHT22;7678;50.058;8.306;2023-03-14T10:48:20;10.90;99.90
15156;DHT22;7678;50.058;8.306;2023-03-14T10:50:53;10.80;99.90
15156;DHT22;7678;50.058;8.306;2023-03-14T10:53:23;10.80;99.90
15156;DHT22;7678;50.058;8.306;2023-03-14T10:55:55;10.80;99.90
15156;DHT22;7678;50.058;8.306;2023-03-14T10:58:28;10.80;99.90
15156;DHT22;7678;50.058;8.306;2023-03-14T11:01:11;10.80;99.90
15156;DHT22;7678;50.058;8.306;2023-03-14T11:03:43;10.80;99.90
15156;DHT22;7678;50.058;8.306;2023-03-14T11:06:19;10.80;99.90
15156;DHT22;7678;50.058;8.306;2023-03-14T11:08:55;10.80;99.90
15156;DHT22;7678;50.058;8.306;2023-03-14T11:11:28;10.80;99.90
15156;DHT22;7678;50.058;8.306;2023-03-14T11:14:06;10.80;99.90
15156;DHT22;7678;50.058;8.306;2023-03-14T11:16:50;10.90;99.90
15156;DHT22;7678;50.058;8.306;2023-03-14T11:19:45;10.90;99.90
15156;DHT22;7678;50.058;8.306;2023-03-14T11:22:23;11.10;99.90
15156;DHT22;7678;50.058;8.306;2023-03-14T11:25:10;11.20;99.90
15156;DHT22;7678;50.058;8.306;2023-03-14T11:27:42;11.10;99.90
15156;DHT22;7678;50.058;8.306;2023-03-14T11:30:19;11.20;99.90
15156;DHT22;7678;50.058;8.306;2023-03-14T11:32:56;11.20;99.90
15156;DHT22;7678;50.058;8.306;2023-03-14T11:35:30;11.20;99.90
15156;DHT22;7678;50.058;8.306;2023-03-14T11:38:05;11.20;99.90
15156;DHT22;7678;50.058;8.306;2023-03-14T11:40:38;11.30;99.90
15156;DHT22;7678;50.058;8.306;2023-03-14T11:43:15;11.30;99.90
15156;DHT22;7678;50.058;8.306;2023-03-14T11:45:49;11.20;99.90
15156;DHT22;7678;50.058;8.306;2023-03-14T11:48:28;11.00;99.90
15156;DHT22;7678;50.058;8.306;2023-03-14T11:51:01;10.70;99.90
15156;DHT22;7678;50.058;8.306;2023-03-14T11:53:45;10.80;99.90
15156;DHT22;7678;50.058;8.306;2023-03-14T11:56:22;10.90;99.90
15156;DHT22;7678;50.058;8.306;2023-03-14T11:58:57;10.60;99.90
15156;DHT22;7678;50.058;8.306;2023-03-14T12:01:53;9.90;99.90
15156;DHT22;7678;50.058;8.306;2023-03-14T12:04:34;9.40;99.90
15156;DHT22;7678;50.058;8.306;2023-03-14T12:07:11;9.20;99.90
15156;DHT22;7678;50.058;8.306;2023-03-14T12:09:45;9.30;99.90
15156;DHT22;7678;50.058;8.306;2023-03-14T12:12:18;9.40;99.90
15156;DHT22;7678;50.058;8.306;2023-03-14T12:14:53;9.60;99.90
15156;DHT22;7678;50.058;8.306;2023-03-14T12:17:25;9.50;99.90
15156;DHT22;7678;50.058;8.306;2023-03-14T12:20:04;9.50;99.90
15156;DHT22;7678;50.058;8.306;2023-03-14T12:22:35;9.70;99.90
15156;DHT22;7678;50.058;8.306;2023-03-14T12:25:13;9.90;99.90
15156;DHT22;7678;50.058;8.306;2023-03-14T12:27:48;10.00;99.90
15156;DHT22;7678;50.058;8.306;2023-03-14T12:30:24;10.20;99.90
15156;DHT22;7678;50.058;8.306;2023-03-14T12:33:19;10.50;99.90
15156;DHT22;7678;50.058;8.306;2023-03-14T12:35:52;10.60;99.90
15156;DHT22;7678;50.058;8.306;2023-03-14T12:38:29;10.80;99.90
15156;DHT22;7678;50.058;8.306;2023-03-14T12:41:05;10.60;99.90
15156;DHT22;7678;50.058;8.306;2023-03-14T12:43:34;10.50;99.90
15156;DHT22;7678;50.058;8.306;2023-03-14T12:46:14;10.20;99.90
15156;DHT22;7678;50.058;8.306;2023-03-14T12:48:44;10.10;99.90
15156;DHT22;7678;50.058;8.306;2023-03-14T12:51:16;9.80;99.90
15156;DHT22;7678;50.058;8.306;2023-03-14T12:54:02;9.60;99.90
15156;DHT22;7678;50.058;8.306;2023-03-14T12:56:47;9.70;99.90
15156;DHT22;7678;50.058;8.306;2023-03-14T12:59:30;9.60;99.90
15156;DHT22;7678;50.058;8.306;2023-03-14T13:02:01;9.60;99.90
15156;DHT22;7678;50.058;8.306;2023-03-14T13:04:33;9.60;99.90
15156;DHT22;7678;50.058;8.306;2023-03-14T13:07:11;9.50;99.90
15156;DHT22;7678;50.058;8.306;2023-03-14T13:10:00;9.50;99.90
15156;DHT22;7678;50.058;8.306;2023-03-14T13:12:34;9.60;99.90
15156;DHT22;7678;50.058;8.306;2023-03-14T13:15:15;9.70;99.90
15156;DHT22;7678;50.058;8.306;2023-03-14T13:17:46;9.80;99.90
15156;DHT22;7678;50.058;8.306;2023-03-14T13:20:20;9.90;99.90
15156;DHT22;7678;50.058;8.306;2023-03-14T13:22:51;9.70;99.90
15156;DHT22;7678;50.058;8.306;2023-03-14T13:25:19;9.90;99.90
15156;DHT22;7678;50.058;8.306;2023-03-14T13:27:51;10.00;99.90
15156;DHT22;7678;50.058;8.306;2023-03-14T13:30:24;9.90;99.90
15156;DHT22;7678;50.058;8.306;2023-03-14T13:32:54;10.10;99.90
15156;DHT22;7678;50.058;8.306;2023-03-14T13:35:26;10.30;99.90
15156;DHT22;7678;50.058;8.306;2023-03-14T13:38:01;10.20;99.90
15156;DHT22;7678;50.058;8.306;2023-03-14T13:40:39;10.40;99.90
15156;DHT22;7678;50.058;8.306;2023-03-14T13:43:16;10.90;99.90
15156;DHT22;7678;50.058;8.306;2023-03-14T13:45:49;10.90;99.90
15156;DHT22;7678;50.058;8.306;2023-03-14T13:48:18;10.90;99.90
15156;DHT22;7678;50.058;8.306;2023-03-14T13:50:51;10.40;99.90
15156;DHT22;7678;50.058;8.306;2023-03-14T13:53:21;10.50;99.90
15156;DHT22;7678;50.058;8.306;2023-03-14T13:55:50;10.50;99.90
15156;DHT22;7678;50.058;8.306;2023-03-14T13:58:22;10.20;99.90
15156;DHT22;7678;50.058;8.306;2023-03-14T14:01:13;10.40;99.90
15156;DHT22;7678;50.058;8.306;2023-03-14T14:03:44;10.10;99.90
15156;DHT22;7678;50.058;8.306;2023-03-14T14:06:24;9.80;99.90
15156;DHT22;7678;50.058;8.306;2023-03-14T14:08:56;9.60;99.90
15156;DHT22;7678;50.058;8.306;2023-03-14T14:11:34;9.70;99.90
15156;DHT22;7678;50.058;8.306;2023-03-14T14:14:18;9.40;99.90
15156;DHT22;7678;50.058;8.306;2023-03-14T14:16:47;9.00;99.90
15156;DHT22;7678;50.058;8.306;2023-03-14T14:19:20;9.00;99.90
15156;DHT22;7678;50.058;8.306;2023-03-14T14:21:49;8.70;99.90
15156;DHT22;7678;50.058;8.306;2023-03-14T14:24:21;8.30;99.90
15156;DHT22;7678;50.058;8.306;2023-03-14T14:26:51;8.30;99.90
15156;DHT22;7678;50.058;8.306;2023-03-14T14:29:26;7.90;99.90
15156;DHT22;7678;50.058;8.306;2023-03-14T14:32:01;7.80;99.90
15156;DHT22;7678;50.058;8.306;2023-03-14T14:34:38;7.90;99.90
15156;DHT22;7678;50.058;8.306;2023-03-14T14:37:23;7.50;99.90
15156;DHT22;7678;50.058;8.306;2023-03-14T14:39:57;6.70;99.90
15156;DHT22;7678;50.058;8.306;2023-03-14T14:42:27;6.40;99.90
15156;DHT22;7678;50.058;8.306;2023-03-14T14:44:58;6.10;99.90
15156;DHT22;7678;50.058;8.306;2023-03-14T14:47:28;5.90;99.90
15156;DHT22;7678;50.058;8.306;2023-03-14T14:50:00;6.00;99.90
15156;DHT22;7678;50.058;8.306;2023-03-14T14:52:41;5.90;99.90
15156;DHT22;7678;50.058;8.306;2023-03-14T14:55:17;5.90;99.90
15156;DHT22;7678;50.058;8.306;2023-03-14T14:57:50;5.90;99.90
15156;DHT22;7678;50.058;8.306;2023-03-14T15:00:20;5.80;99.90
15156;DHT22;7678;50.058;8.306;2023-03-14T15:02:50;5.90;99.90
15156;DHT22;7678;50.058;8.306;2023-03-14T15:05:22;6.00;99.90
15156;DHT22;7678;50.058;8.306;2023-03-14T15:07:51;5.70;99.90
15156;DHT22;7678;50.058;8.306;2023-03-14T15:10:23;5.50;99.90
15156;DHT22;7678;50.058;8.306;2023-03-14T15:12:52;5.50;99.90
15156;DHT22;7678;50.058;8.306;2023-03-14T15:15:20;5.40;99.90
15156;DHT22;7678;50.058;8.306;2023-03-14T15:17:48;5.40;99.90
15156;DHT22;7678;50.058;8.306;2023-03-14T15:20:17;5.30;99.90
15156;DHT22;7678;50.058;8.306;2023-03-14T15:22:46;5.30;99.90
15156;DHT22;7678;50.058;8.306;2023-03-14T15:25:14;5.60;99.90
15156;DHT22;7678;50.058;8.306;2023-03-14T15:28:10;5.40;99.90
15156;DHT22;7678;50.058;8.306;2023-03-14T15:30:39;5.40;99.90
15156;DHT22;7678;50.058;8.306;2023-03-14T15:33:08;5.50;99.90
15156;DHT22;7678;50.058;8.306;2023-03-14T15:35:36;5.50;99.90
15156;DHT22;7678;50.058;8.306;2023-03-14T15:38:05;5.50;99.90
15156;DHT22;7678;50.058;8.306;2023-03-14T15:40:33;5.60;99.90
15156;DHT22;7678;50.058;8.306;2023-03-14T15:43:03;5.50;99.90
15156;DHT22;7678;50.058;8.306;2023-03-14T15:45:34;5.40;99.90
15156;DHT22;7678;50.058;8.306;2023-03-14T15:48:04;5.50;99.90
15156;DHT22;7678;50.058;8.306;2023-03-14T15:50:32;5.40;99.90
15156;DHT22;7678;50.058;8.306;2023-03-14T15:53:01;5.30;99.90
15156;DHT22;7678;50.058;8.306;2023-03-14T15:55:29;5.30;99.90
15156;DHT22;7678;50.058;8.306;2023-03-14T15:57:57;5.30;99.90
15156;DHT22;7678;50.058;8.306;2023-03-14T16:00:30;5.10;99.90
15156;DHT22;7678;50.058;8.306;2023-03-14T16:03:01;5.20;99.90
15156;DHT22;7678;50.058;8.306;2023-03-14T16:05:30;5.30;99.90
15156;DHT22;7678;50.058;8.306;2023-03-14T16:07:58;5.20;99.90
15156;DHT22;7678;50.058;8.306;2023-03-14T16:10:27;5.30;99.90
15156;DHT22;7678;50.058;8.306;2023-03-14T16:12:56;5.30;99.90
15156;DHT22;7678;50.058;8.306;2023-03-14T16:15:25;5.20;99.90
15156;DHT22;7678;50.058;8.306;2023-03-14T16:17:55;5.30;99.90
15156;DHT22;7678;50.058;8.306;2023-03-14T16:20:24;5.40;99.90